Time;durP1;ratioP1;P1;durP2;ratioP2;P2;SDS_P1;SDS_P2;PMS_P1;PMS_P2;Temp;Humidity;BMP_temperature;BMP_pressure;BME280_temperature;BME280_humidity;BME280_pressure;Samples;Min_cycle;Max_cycle;Signal;HPM_P1;HPM_P2
2024/02/19 00:01:25;;;;;;;;;;;18.90;74.60;;;;;;5018197;28;82868;-45
2024/02/19 00:03:51;;;;;;;;;;;18.90;74.50;;;;;;5018868;28;83858;-45
2024/02/19 00:06:17;;;;;;;;;;;18.90;74.40;;;;;;5022404;28;82957;-45
2024/02/19 00:08:42;;;;;;;;;;;18.80;74.10;;;;;;5020707;28;83404;-45
2024/02/19 00:11:08;;;;;;;;;;;18.70;74.00;;;;;;5022117;28;82652;-45
2024/02/19 00:13:35;;;;;;;;;;;18.70;74.00;;;;;;5024374;28;82783;-45
2024/02/19 00:16:01;;;;;;;;;;;18.70;73.80;;;;;;5020400;28;82584;-45
2024/02/19 00:18:27;;;;;;;;;;;18.60;73.70;;;;;;5024448;28;82014;-45
2024/02/19 00:20:52;;;;;;;;;;;18.50;73.60;;;;;;5021491;28;81561;-44
2024/02/19 00:23:18;;;;;;;;;;;18.50;73.50;;;;;;5020804;28;81999;-45
2024/02/19 00:25:43;;;;;;;;;;;18.50;73.40;;;;;;5018688;28;81960;-45
2024/02/19 00:28:10;;;;;;;;;;;18.40;73.30;;;;;;5016464;28;83360;-45
2024/02/19 00:30:36;;;;;;;;;;;18.40;73.20;;;;;;5019318;28;82846;-45
2024/02/19 00:33:02;;;;;;;;;;;18.30;73.10;;;;;;5018940;28;81925;-45
2024/02/19 00:35:27;;;;;;;;;;;18.30;73.10;;;;;;5022505;28;83274;-45
2024/02/19 00:37:53;;;;;;;;;;;18.20;73.00;;;;;;5017992;28;82091;-45
2024/02/19 00:40:19;;;;;;;;;;;18.20;72.90;;;;;;5021090;28;82447;-45
2024/02/19 00:42:44;;;;;;;;;;;18.10;72.80;;;;;;5019625;28;81934;-45
2024/02/19 00:45:11;;;;;;;;;;;18.10;72.80;;;;;;5018196;28;81160;-45
2024/02/19 00:47:36;;;;;;;;;;;18.00;72.70;;;;;;5025323;28;81851;-45
2024/02/19 00:50:03;;;;;;;;;;;18.00;72.60;;;;;;5020327;28;81954;-45
2024/02/19 00:52:29;;;;;;;;;;;17.90;72.60;;;;;;5018528;28;82936;-45
2024/02/19 00:54:57;;;;;;;;;;;17.90;72.50;;;;;;5018429;28;82354;-45
2024/02/19 00:57:23;;;;;;;;;;;17.90;72.50;;;;;;5023940;28;81868;-45
2024/02/19 00:59:48;;;;;;;;;;;17.80;72.40;;;;;;5019076;28;82241;-45
2024/02/19 01:02:14;;;;;;;;;;;17.80;72.40;;;;;;5021755;28;81885;-45
2024/02/19 01:04:40;;;;;;;;;;;17.70;72.30;;;;;;5017258;28;82834;-45
2024/02/19 01:07:06;;;;;;;;;;;17.70;72.20;;;;;;5017271;28;82432;-45
2024/02/19 01:09:31;;;;;;;;;;;17.60;72.20;;;;;;5019048;28;81672;-45
2024/02/19 01:11:57;;;;;;;;;;;17.60;72.20;;;;;;5015681;28;81890;-45
2024/02/19 01:14:22;;;;;;;;;;;17.50;72.10;;;;;;5018461;28;83220;-45
2024/02/19 01:16:48;;;;;;;;;;;17.50;72.10;;;;;;5018534;28;84487;-45
2024/02/19 01:19:14;;;;;;;;;;;17.40;72.00;;;;;;5019147;28;83678;-45
2024/02/19 01:21:40;;;;;;;;;;;17.40;72.00;;;;;;5021525;28;82053;-45
2024/02/19 01:24:06;;;;;;;;;;;17.30;71.90;;;;;;5020578;28;81870;-45
2024/02/19 01:26:31;;;;;;;;;;;17.30;71.90;;;;;;5020227;28;82205;-45
2024/02/19 01:28:57;;;;;;;;;;;17.20;71.80;;;;;;5024266;28;81941;-45
2024/02/19 01:31:23;;;;;;;;;;;17.20;71.80;;;;;;5019009;28;81862;-45
2024/02/19 01:33:48;;;;;;;;;;;17.20;71.80;;;;;;5015567;28;81634;-45
2024/02/19 01:36:14;;;;;;;;;;;17.10;71.70;;;;;;5017365;28;81964;-45
2024/02/19 01:38:41;;;;;;;;;;;17.00;72.30;;;;;;5021967;28;82665;-45
2024/02/19 01:41:07;;;;;;;;;;;17.00;71.70;;;;;;5020052;28;82908;-45
2024/02/19 01:43:32;;;;;;;;;;;17.00;71.70;;;;;;5022978;28;82606;-45
2024/02/19 01:45:58;;;;;;;;;;;16.90;71.60;;;;;;5015946;28;82291;-45
2024/02/19 01:48:24;;;;;;;;;;;16.90;71.60;;;;;;5023155;28;81901;-45
2024/02/19 01:50:50;;;;;;;;;;;16.80;71.50;;;;;;5019261;28;82913;-45
2024/02/19 01:53:16;;;;;;;;;;;16.80;71.50;;;;;;5019257;28;81859;-45
2024/02/19 01:55:42;;;;;;;;;;;16.70;71.50;;;;;;5022892;28;81737;-45
2024/02/19 01:58:09;;;;;;;;;;;16.70;71.40;;;;;;5017240;28;82783;-45
2024/02/19 02:00:34;;;;;;;;;;;16.70;71.40;;;;;;5024094;28;81724;-45
2024/02/19 02:03:01;;;;;;;;;;;16.60;71.40;;;;;;5019473;28;82864;-45
2024/02/19 02:05:26;;;;;;;;;;;16.60;71.40;;;;;;5014344;28;84545;-45
2024/02/19 02:07:52;;;;;;;;;;;16.50;71.30;;;;;;5018578;28;81977;-45
2024/02/19 02:10:18;;;;;;;;;;;16.50;71.40;;;;;;5017246;28;81981;-45
2024/02/19 02:12:44;;;;;;;;;;;16.50;71.30;;;;;;5016120;28;82393;-45
2024/02/19 02:15:10;;;;;;;;;;;16.40;71.30;;;;;;5017001;28;82005;-45
2024/02/19 02:17:35;;;;;;;;;;;16.40;71.30;;;;;;5015905;28;82290;-45
2024/02/19 02:20:01;;;;;;;;;;;16.30;71.20;;;;;;5016962;28;82383;-45
2024/02/19 02:22:26;;;;;;;;;;;16.30;71.20;;;;;;5022204;28;82170;-45
2024/02/19 02:24:52;;;;;;;;;;;16.30;71.20;;;;;;5019153;28;82221;-45
2024/02/19 02:27:19;;;;;;;;;;;16.20;71.20;;;;;;5016232;28;81977;-45
2024/02/19 02:29:45;;;;;;;;;;;16.10;71.10;;;;;;5023366;28;83253;-45
2024/02/19 02:32:10;;;;;;;;;;;16.10;71.10;;;;;;5019208;28;83444;-45
2024/02/19 02:34:36;;;;;;;;;;;16.00;71.10;;;;;;5018980;28;82664;-45
2024/02/19 02:37:02;;;;;;;;;;;16.00;71.00;;;;;;5021834;28;82174;-45
2024/02/19 02:39:28;;;;;;;;;;;16.00;71.10;;;;;;5015384;28;83481;-45
2024/02/19 02:41:54;;;;;;;;;;;15.90;71.00;;;;;;5016871;28;82078;-45
2024/02/19 02:44:19;;;;;;;;;;;15.90;71.00;;;;;;5023429;28;82825;-45
2024/02/19 02:46:45;;;;;;;;;;;15.80;70.90;;;;;;5018973;28;81205;-45
2024/02/19 02:49:10;;;;;;;;;;;15.80;70.90;;;;;;5017171;28;82144;-45
2024/02/19 02:51:36;;;;;;;;;;;15.80;71.60;;;;;;5021723;28;82384;-45
2024/02/19 02:54:01;;;;;;;;;;;15.80;71.00;;;;;;5014058;28;82963;-45
2024/02/19 02:56:27;;;;;;;;;;;15.70;70.90;;;;;;5018290;28;83973;-45
2024/02/19 02:58:53;;;;;;;;;;;15.70;70.90;;;;;;5014154;28;82419;-45
2024/02/19 03:01:21;;;;;;;;;;;15.60;70.90;;;;;;5021833;28;83687;-45
2024/02/19 03:03:47;;;;;;;;;;;15.60;70.90;;;;;;5018708;28;82985;-45
2024/02/19 03:06:12;;;;;;;;;;;15.50;70.80;;;;;;5013671;28;82379;-46
2024/02/19 03:08:38;;;;;;;;;;;15.50;70.80;;;;;;5015033;28;82897;-47
2024/02/19 03:11:04;;;;;;;;;;;15.50;70.90;;;;;;5020960;28;82077;-47
2024/02/19 03:13:32;;;;;;;;;;;15.40;70.80;;;;;;5021515;28;81956;-46
2024/02/19 03:15:58;;;;;;;;;;;15.40;70.80;;;;;;5020866;28;82853;-46
2024/02/19 03:18:23;;;;;;;;;;;15.30;70.70;;;;;;5022783;28;83356;-46
2024/02/19 03:20:49;;;;;;;;;;;15.30;70.70;;;;;;5022102;28;82059;-46
2024/02/19 03:23:15;;;;;;;;;;;15.30;70.70;;;;;;5021607;28;82941;-46
2024/02/19 03:25:41;;;;;;;;;;;15.20;70.70;;;;;;5021150;28;82966;-46
2024/02/19 03:28:06;;;;;;;;;;;15.20;70.70;;;;;;5024623;28;82455;-47
2024/02/19 03:30:32;;;;;;;;;;;15.10;70.70;;;;;;5018322;28;82506;-46
2024/02/19 03:32:58;;;;;;;;;;;15.10;70.60;;;;;;5025767;28;81966;-46
2024/02/19 03:35:23;;;;;;;;;;;15.10;70.60;;;;;;5022117;28;84229;-46
2024/02/19 03:37:50;;;;;;;;;;;15.00;70.60;;;;;;5022692;28;82428;-46
2024/02/19 03:40:16;;;;;;;;;;;15.00;70.60;;;;;;5022729;28;82072;-47
2024/02/19 03:42:42;;;;;;;;;;;14.90;70.60;;;;;;5034601;28;83062;-46
2024/02/19 03:45:08;;;;;;;;;;;14.90;70.60;;;;;;5018482;28;83613;-46
2024/02/19 03:47:34;;;;;;;;;;;14.90;70.60;;;;;;5026522;28;82200;-46
2024/02/19 03:50:00;;;;;;;;;;;14.80;70.50;;;;;;5021518;28;82761;-46
2024/02/19 03:52:26;;;;;;;;;;;14.80;70.50;;;;;;5018961;28;82261;-46
2024/02/19 03:54:51;;;;;;;;;;;14.70;70.50;;;;;;5020019;28;83843;-46
2024/02/19 03:57:17;;;;;;;;;;;14.70;70.50;;;;;;5020854;28;82403;-46
2024/02/19 03:59:43;;;;;;;;;;;14.70;70.50;;;;;;5020902;28;81211;-47
2024/02/19 04:02:08;;;;;;;;;;;14.70;70.50;;;;;;5020604;28;82085;-45
2024/02/19 04:04:34;;;;;;;;;;;14.60;70.50;;;;;;5019772;28;83765;-45
2024/02/19 04:06:59;;;;;;;;;;;14.60;70.50;;;;;;5018972;28;82825;-45
2024/02/19 04:09:25;;;;;;;;;;;14.60;70.50;;;;;;5029058;28;83049;-46
2024/02/19 04:11:50;;;;;;;;;;;14.50;70.40;;;;;;5017352;28;82670;-45
2024/02/19 04:14:16;;;;;;;;;;;14.50;70.40;;;;;;5022379;28;82868;-45
2024/02/19 04:16:42;;;;;;;;;;;14.40;70.40;;;;;;5019108;28;82759;-45
2024/02/19 04:19:08;;;;;;;;;;;14.40;70.40;;;;;;5023412;28;82042;-45
2024/02/19 04:21:33;;;;;;;;;;;14.40;70.40;;;;;;5019304;28;81958;-45
2024/02/19 04:23:59;;;;;;;;;;;14.30;70.40;;;;;;5022267;28;81639;-45
2024/02/19 04:26:24;;;;;;;;;;;14.30;70.40;;;;;;5018796;28;81986;-45
2024/02/19 04:28:53;;;;;;;;;;;14.30;70.40;;;;;;5021457;28;81888;-45
2024/02/19 04:31:19;;;;;;;;;;;14.20;70.30;;;;;;5022446;28;83342;-45
2024/02/19 04:33:44;;;;;;;;;;;14.20;70.30;;;;;;5019181;28;82622;-45
2024/02/19 04:36:10;;;;;;;;;;;14.10;70.30;;;;;;5019277;28;82648;-45
2024/02/19 04:38:35;;;;;;;;;;;14.10;70.30;;;;;;5014242;28;82021;-45
2024/02/19 04:41:01;;;;;;;;;;;14.10;70.30;;;;;;5018118;28;82880;-45
2024/02/19 04:43:26;;;;;;;;;;;14.00;70.30;;;;;;5017384;28;82552;-46
2024/02/19 04:45:52;;;;;;;;;;;14.00;70.20;;;;;;5011949;28;81790;-45
2024/02/19 04:48:17;;;;;;;;;;;14.00;70.20;;;;;;5021136;28;82892;-45
2024/02/19 04:50:43;;;;;;;;;;;13.90;70.20;;;;;;5020454;28;82372;-45
2024/02/19 04:53:08;;;;;;;;;;;13.90;70.20;;;;;;5024340;28;82060;-45
2024/02/19 04:55:34;;;;;;;;;;;13.90;70.20;;;;;;5018204;28;83236;-45
2024/02/19 04:58:00;;;;;;;;;;;13.80;70.20;;;;;;5023551;28;81983;-45
2024/02/19 05:00:26;;;;;;;;;;;13.80;70.20;;;;;;5016004;28;81899;-45
2024/02/19 05:02:51;;;;;;;;;;;13.70;70.10;;;;;;5018654;28;82628;-45
2024/02/19 05:05:17;;;;;;;;;;;13.70;70.10;;;;;;5016850;28;82125;-45
2024/02/19 05:07:43;;;;;;;;;;;13.70;70.20;;;;;;5017302;28;82175;-45
2024/02/19 05:10:09;;;;;;;;;;;13.60;70.10;;;;;;5018607;28;81961;-45
2024/02/19 05:12:35;;;;;;;;;;;13.60;70.10;;;;;;5022709;28;81229;-45
2024/02/19 05:15:01;;;;;;;;;;;13.60;70.10;;;;;;5023835;28;82648;-45
2024/02/19 05:17:26;;;;;;;;;;;13.50;70.10;;;;;;5016726;28;81994;-45
2024/02/19 05:19:52;;;;;;;;;;;13.50;70.10;;;;;;5018642;28;84683;-45
2024/02/19 05:22:18;;;;;;;;;;;13.50;70.10;;;;;;5021982;28;82255;-45
2024/02/19 05:24:47;;;;;;;;;;;13.50;70.10;;;;;;5019138;28;82005;-45
2024/02/19 05:27:13;;;;;;;;;;;13.40;70.10;;;;;;5021318;28;82595;-45
2024/02/19 05:29:38;;;;;;;;;;;13.40;70.10;;;;;;5021536;28;83423;-45
2024/02/19 05:32:04;;;;;;;;;;;13.40;70.10;;;;;;5016943;28;81997;-45
2024/02/19 05:34:30;;;;;;;;;;;13.30;70.10;;;;;;5024802;28;81949;-45
2024/02/19 05:36:56;;;;;;;;;;;13.30;70.10;;;;;;5019612;28;82677;-45
2024/02/19 05:39:21;;;;;;;;;;;13.30;70.10;;;;;;5023837;28;82234;-45
2024/02/19 05:41:47;;;;;;;;;;;13.20;70.00;;;;;;5014447;28;82281;-45
2024/02/19 05:44:12;;;;;;;;;;;13.20;70.00;;;;;;5016929;28;82900;-45
2024/02/19 05:46:38;;;;;;;;;;;13.20;70.00;;;;;;5018417;28;82627;-45
2024/02/19 05:49:04;;;;;;;;;;;13.10;70.00;;;;;;5017311;28;83325;-45
2024/02/19 05:51:29;;;;;;;;;;;13.10;70.00;;;;;;5018780;28;81946;-45
2024/02/19 05:53:55;;;;;;;;;;;13.10;70.00;;;;;;5015883;28;82057;-45
2024/02/19 05:56:20;;;;;;;;;;;13.00;70.00;;;;;;5018235;28;82525;-45
2024/02/19 05:58:47;;;;;;;;;;;13.00;70.00;;;;;;5017712;28;82763;-45
2024/02/19 06:01:13;;;;;;;;;;;13.00;70.00;;;;;;5020937;28;82738;-45
2024/02/19 06:03:38;;;;;;;;;;;12.90;70.00;;;;;;5018195;28;82096;-45
2024/02/19 06:06:04;;;;;;;;;;;12.90;70.00;;;;;;5016522;28;81934;-45
2024/02/19 06:08:30;;;;;;;;;;;12.90;70.00;;;;;;5017180;28;83336;-45
2024/02/19 06:10:56;;;;;;;;;;;12.80;70.00;;;;;;5019296;28;82005;-45
2024/02/19 06:13:22;;;;;;;;;;;12.80;69.90;;;;;;5017433;28;82030;-45
2024/02/19 06:15:47;;;;;;;;;;;12.80;69.90;;;;;;5018565;28;83458;-45
2024/02/19 06:18:13;;;;;;;;;;;12.70;69.90;;;;;;5018089;28;82138;-45
2024/02/19 06:20:42;;;;;;;;;;;12.70;70.00;;;;;;5019812;28;82383;-45
2024/02/19 06:23:07;;;;;;;;;;;12.70;69.90;;;;;;5022264;28;81893;-45
2024/02/19 06:25:33;;;;;;;;;;;12.70;70.00;;;;;;5017651;28;81707;-45
2024/02/19 06:27:59;;;;;;;;;;;12.60;69.90;;;;;;5016829;28;83623;-45
2024/02/19 06:30:24;;;;;;;;;;;12.60;70.00;;;;;;5025033;28;82075;-45
2024/02/19 06:32:50;;;;;;;;;;;12.60;69.90;;;;;;5018706;28;82879;-45
2024/02/19 06:35:15;;;;;;;;;;;12.50;69.90;;;;;;5018266;28;82411;-45
2024/02/19 06:37:41;;;;;;;;;;;12.50;69.90;;;;;;5013511;28;82105;-45
2024/02/19 06:40:07;;;;;;;;;;;12.50;69.90;;;;;;5016503;28;82943;-45
2024/02/19 06:42:33;;;;;;;;;;;12.40;69.80;;;;;;5018474;28;81848;-45
2024/02/19 06:44:59;;;;;;;;;;;12.40;69.80;;;;;;5022186;28;81940;-45
2024/02/19 06:47:24;;;;;;;;;;;12.40;69.90;;;;;;5016308;28;87649;-45
2024/02/19 06:49:50;;;;;;;;;;;12.40;69.90;;;;;;5020726;28;86372;-45
2024/02/19 06:52:18;;;;;;;;;;;12.30;69.80;;;;;;5017443;28;87794;-45
2024/02/19 06:54:44;;;;;;;;;;;12.30;70.40;;;;;;5015576;28;88564;-45
2024/02/19 06:57:09;;;;;;;;;;;12.30;69.90;;;;;;5014910;28;88638;-45
2024/02/19 06:59:35;;;;;;;;;;;12.20;69.80;;;;;;5022968;28;86964;-45
2024/02/19 07:02:01;;;;;;;;;;;12.20;69.80;;;;;;5017123;28;88416;-45
2024/02/19 07:04:26;;;;;;;;;;;12.20;69.80;;;;;;5021399;28;88558;-45
2024/02/19 07:06:52;;;;;;;;;;;12.20;69.80;;;;;;5015379;28;88351;-45
2024/02/19 07:09:18;;;;;;;;;;;12.10;69.80;;;;;;5021810;28;86973;-45
2024/02/19 07:11:43;;;;;;;;;;;12.10;69.80;;;;;;5017830;28;86924;-45
2024/02/19 07:14:09;;;;;;;;;;;12.10;69.80;;;;;;5016602;28;87054;-45
2024/02/19 07:16:34;;;;;;;;;;;12.00;69.80;;;;;;5014543;28;88656;-45
2024/02/19 07:19:00;;;;;;;;;;;12.00;69.80;;;;;;5021130;28;87211;-45
2024/02/19 07:21:25;;;;;;;;;;;12.00;69.80;;;;;;5020194;28;88393;-45
2024/02/19 07:23:51;;;;;;;;;;;12.00;69.80;;;;;;5019397;28;87025;-45
2024/02/19 07:26:16;;;;;;;;;;;11.90;69.80;;;;;;5019829;28;89098;-45
2024/02/19 07:28:42;;;;;;;;;;;11.90;69.80;;;;;;5018791;28;86912;-45
2024/02/19 07:31:07;;;;;;;;;;;11.90;69.80;;;;;;5016041;28;86900;-45
2024/02/19 07:33:34;;;;;;;;;;;11.80;69.70;;;;;;5013241;28;88491;-45
2024/02/19 07:36:00;;;;;;;;;;;11.80;69.70;;;;;;5015157;28;87118;-45
2024/02/19 07:38:25;;;;;;;;;;;11.80;69.70;;;;;;5016033;28;86621;-45
2024/02/19 07:40:51;;;;;;;;;;;11.70;69.70;;;;;;5019887;28;88506;-45
2024/02/19 07:43:16;;;;;;;;;;;11.70;69.70;;;;;;5017160;28;88077;-45
2024/02/19 07:45:42;;;;;;;;;;;11.70;69.70;;;;;;5019738;28;88178;-45
2024/02/19 07:48:08;;;;;;;;;;;11.70;69.80;;;;;;5018817;28;87018;-45
2024/02/19 07:50:34;;;;;;;;;;;11.60;69.70;;;;;;5015386;28;87920;-45
2024/02/19 07:52:59;;;;;;;;;;;11.60;69.70;;;;;;5016066;28;87242;-45
2024/02/19 07:55:25;;;;;;;;;;;11.60;69.70;;;;;;5015799;28;87216;-45
2024/02/19 07:57:51;;;;;;;;;;;11.50;69.70;;;;;;5013434;28;87089;-45
2024/02/19 08:00:17;;;;;;;;;;;11.50;69.70;;;;;;5017038;28;87663;-45
2024/02/19 08:02:42;;;;;;;;;;;11.50;69.70;;;;;;5009410;28;86297;-45
2024/02/19 08:05:08;;;;;;;;;;;11.50;69.70;;;;;;5018098;28;87503;-45
2024/02/19 08:07:33;;;;;;;;;;;11.40;69.70;;;;;;5016032;28;87089;-45
2024/02/19 08:09:59;;;;;;;;;;;11.40;69.70;;;;;;5015892;28;88714;-45
2024/02/19 08:12:25;;;;;;;;;;;11.40;69.70;;;;;;5017221;28;87749;-45
2024/02/19 08:14:50;;;;;;;;;;;11.40;69.70;;;;;;5017373;28;87029;-45
2024/02/19 08:17:17;;;;;;;;;;;11.30;69.60;;;;;;5015460;28;87044;-45
2024/02/19 08:19:43;;;;;;;;;;;11.30;69.60;;;;;;5018688;28;88347;-45
2024/02/19 08:22:08;;;;;;;;;;;11.30;69.70;;;;;;5017239;28;87046;-45
2024/02/19 08:24:35;;;;;;;;;;;11.30;69.60;;;;;;5015462;28;87470;-45
2024/02/19 08:27:01;;;;;;;;;;;11.30;69.60;;;;;;5018679;28;86759;-45
2024/02/19 08:29:28;;;;;;;;;;;11.20;69.60;;;;;;5017214;28;86975;-45
2024/02/19 08:31:54;;;;;;;;;;;11.20;69.60;;;;;;5014408;28;87655;-45
2024/02/19 08:34:20;;;;;;;;;;;11.20;69.50;;;;;;5018698;28;88595;-45
2024/02/19 08:36:46;;;;;;;;;;;11.20;69.50;;;;;;5015872;28;87749;-45
2024/02/19 08:39:11;;;;;;;;;;;11.10;69.50;;;;;;5019657;28;88539;-45
2024/02/19 08:41:37;;;;;;;;;;;11.10;69.50;;;;;;5015757;28;87069;-45
2024/02/19 08:44:02;;;;;;;;;;;11.10;69.50;;;;;;5016437;28;88818;-45
2024/02/19 08:46:28;;;;;;;;;;;11.10;69.50;;;;;;5013267;28;87540;-45
2024/02/19 08:48:55;;;;;;;;;;;11.10;69.50;;;;;;5019367;28;87061;-45
2024/02/19 08:51:20;;;;;;;;;;;11.10;69.50;;;;;;5014752;28;87697;-45
2024/02/19 08:53:46;;;;;;;;;;;11.10;69.40;;;;;;5017413;28;88237;-45
2024/02/19 08:56:12;;;;;;;;;;;11.00;69.40;;;;;;5019936;28;87333;-45
2024/02/19 08:58:37;;;;;;;;;;;11.00;69.40;;;;;;5011326;28;88564;-45
2024/02/19 09:01:06;;;;;;;;;;;11.00;69.40;;;;;;5013032;28;87371;-45
2024/02/19 09:03:31;;;;;;;;;;;10.90;69.40;;;;;;5021253;28;87030;-45
2024/02/19 09:05:57;;;;;;;;;;;10.90;69.40;;;;;;5018180;28;88327;-45
2024/02/19 09:08:22;;;;;;;;;;;10.90;69.40;;;;;;5013738;28;87105;-45
2024/02/19 09:10:48;;;;;;;;;;;10.90;69.50;;;;;;5016171;28;88969;-45
2024/02/19 09:13:13;;;;;;;;;;;10.80;69.40;;;;;;5015199;28;87034;-45
2024/02/19 09:15:39;;;;;;;;;;;10.80;69.40;;;;;;5015623;28;86798;-45
2024/02/19 09:18:05;;;;;;;;;;;10.80;69.40;;;;;;5016708;28;87538;-45
2024/02/19 09:20:30;;;;;;;;;;;10.80;69.30;;;;;;5012877;28;87017;-45
2024/02/19 09:22:56;;;;;;;;;;;10.80;69.30;;;;;;5018100;28;87907;-45
2024/02/19 09:25:23;;;;;;;;;;;10.80;69.20;;;;;;5013550;28;87418;-45
2024/02/19 09:27:49;;;;;;;;;;;10.80;69.20;;;;;;5014920;28;87207;-45
2024/02/19 09:30:15;;;;;;;;;;;10.80;69.20;;;;;;5016066;28;87964;-45
2024/02/19 09:32:40;;;;;;;;;;;10.80;69.20;;;;;;5022634;28;87875;-45
2024/02/19 09:35:06;;;;;;;;;;;10.70;69.20;;;;;;5017978;28;86962;-45
2024/02/19 09:37:32;;;;;;;;;;;10.70;69.20;;;;;;5011716;28;87391;-45
2024/02/19 09:40:00;;;;;;;;;;;10.70;69.20;;;;;;5014691;28;86654;-45
2024/02/19 09:42:32;;;;;;;;;;;10.70;69.10;;;;;;5015914;28;86994;-45
2024/02/19 09:44:57;;;;;;;;;;;10.70;69.10;;;;;;5013580;28;88483;-45
2024/02/19 09:47:23;;;;;;;;;;;10.70;69.10;;;;;;5012560;28;87907;-45
2024/02/19 09:49:49;;;;;;;;;;;10.70;69.10;;;;;;5016530;28;87659;-45
2024/02/19 09:52:24;;;;;;;;;;;10.70;69.00;;;;;;5011252;28;87492;-45
2024/02/19 09:54:50;;;;;;;;;;;10.70;69.00;;;;;;5017290;28;87028;-45
2024/02/19 09:57:18;;;;;;;;;;;10.60;69.00;;;;;;5016357;28;87352;-45
2024/02/19 09:59:45;;;;;;;;;;;10.60;69.10;;;;;;5017712;28;87017;-45
2024/02/19 10:02:11;;;;;;;;;;;10.50;69.10;;;;;;5017078;28;88499;-44
2024/02/19 10:04:40;;;;;;;;;;;10.50;69.10;;;;;;5013876;28;88017;-45
2024/02/19 10:07:06;;;;;;;;;;;10.50;69.20;;;;;;5015972;27;87063;-45
2024/02/19 10:09:32;;;;;;;;;;;10.50;69.20;;;;;;5018268;28;87460;-45
2024/02/19 10:11:57;;;;;;;;;;;10.50;69.20;;;;;;5014728;28;88344;-45
2024/02/19 10:14:23;;;;;;;;;;;10.40;69.20;;;;;;5017025;28;87372;-45
2024/02/19 10:16:50;;;;;;;;;;;10.40;69.20;;;;;;5019693;28;90088;-45
2024/02/19 10:19:15;;;;;;;;;;;10.40;69.30;;;;;;5012775;28;87443;-45
2024/02/19 10:21:42;;;;;;;;;;;10.40;69.30;;;;;;5014315;28;87330;-45
2024/02/19 10:24:07;;;;;;;;;;;10.40;69.30;;;;;;5015756;28;88503;-45
2024/02/19 10:26:34;;;;;;;;;;;10.40;69.30;;;;;;5016898;28;88215;-45
2024/02/19 10:28:59;;;;;;;;;;;10.30;69.20;;;;;;5011542;28;86817;-45
2024/02/19 10:31:25;;;;;;;;;;;10.30;69.30;;;;;;5017106;28;88614;-45
2024/02/19 10:33:51;;;;;;;;;;;10.30;69.30;;;;;;5014031;28;86938;-46
2024/02/19 10:36:19;;;;;;;;;;;10.30;69.30;;;;;;5015511;28;89714;-45
2024/02/19 10:38:46;;;;;;;;;;;10.20;69.20;;;;;;5011632;28;88336;-45
2024/02/19 10:41:12;;;;;;;;;;;10.30;69.30;;;;;;5012635;28;86971;-45
2024/02/19 10:43:38;;;;;;;;;;;10.20;69.30;;;;;;5011979;28;87270;-45
2024/02/19 10:46:04;;;;;;;;;;;10.20;69.30;;;;;;5009601;28;88388;-45
2024/02/19 10:48:30;;;;;;;;;;;10.20;69.30;;;;;;5012541;28;87921;-45
2024/02/19 10:50:56;;;;;;;;;;;10.20;69.30;;;;;;5014653;28;87480;-45
2024/02/19 10:53:27;;;;;;;;;;;10.20;69.30;;;;;;5011618;28;86274;-45
2024/02/19 10:56:07;;;;;;;;;;;10.20;69.30;;;;;;5013792;28;87525;-45
2024/02/19 10:58:33;;;;;;;;;;;10.20;69.20;;;;;;5013816;28;88719;-45
2024/02/19 11:01:01;;;;;;;;;;;10.20;69.10;;;;;;5013348;28;87910;-45
2024/02/19 11:03:27;;;;;;;;;;;10.20;69.10;;;;;;5014187;28;88463;-45
2024/02/19 11:05:58;;;;;;;;;;;10.20;69.10;;;;;;5014272;28;87137;-45
2024/02/19 11:08:24;;;;;;;;;;;10.10;69.10;;;;;;5017564;28;86940;-45
2024/02/19 11:10:52;;;;;;;;;;;10.10;69.70;;;;;;5021020;28;88471;-45
2024/02/19 11:13:18;;;;;;;;;;;10.20;69.10;;;;;;5011475;28;87741;-45
2024/02/19 11:15:44;;;;;;;;;;;10.10;69.00;;;;;;5010507;28;87555;-45
2024/02/19 11:18:13;;;;;;;;;;;10.10;69.00;;;;;;5014822;28;86662;-45
2024/02/19 11:20:39;;;;;;;;;;;10.10;69.00;;;;;;5018994;28;87619;-45
2024/02/19 11:23:05;;;;;;;;;;;10.20;69.00;;;;;;5014365;28;87394;-45
2024/02/19 11:25:30;;;;;;;;;;;10.20;68.90;;;;;;5016547;28;87927;-45
2024/02/19 11:27:57;;;;;;;;;;;10.10;69.50;;;;;;5014232;28;88621;-45
2024/02/19 11:30:23;;;;;;;;;;;10.10;68.90;;;;;;5015385;28;87871;-45
2024/02/19 11:32:58;;;;;;;;;;;10.10;68.90;;;;;;5017153;28;87050;-45
2024/02/19 11:35:23;;;;;;;;;;;10.10;68.90;;;;;;5014380;28;87474;-45
2024/02/19 11:37:49;;;;;;;;;;;10.20;69.60;;;;;;5020166;28;88378;-45
2024/02/19 11:40:14;;;;;;;;;;;10.10;68.80;;;;;;5016913;28;87434;-45
2024/02/19 11:42:40;;;;;;;;;;;10.10;68.90;;;;;;5018850;28;87012;-45
2024/02/19 11:45:06;;;;;;;;;;;10.10;68.90;;;;;;5017907;28;87685;-45
2024/02/19 11:47:32;;;;;;;;;;;10.10;68.90;;;;;;5015859;28;86997;-45
2024/02/19 11:49:57;;;;;;;;;;;10.10;68.90;;;;;;5015802;28;88390;-45
2024/02/19 11:52:23;;;;;;;;;;;10.10;68.90;;;;;;5013339;28;87073;-45
2024/02/19 11:54:55;;;;;;;;;;;10.10;69.00;;;;;;5022972;28;86848;-45
2024/02/19 11:57:22;;;;;;;;;;;10.10;69.00;;;;;;5014991;28;87362;-45
2024/02/19 11:59:48;;;;;;;;;;;10.10;69.00;;;;;;5016613;28;87015;-45
2024/02/19 12:02:13;;;;;;;;;;;10.00;69.00;;;;;;5022889;28;88017;-45
2024/02/19 12:04:39;;;;;;;;;;;10.00;69.00;;;;;;5018044;28;87068;-45
2024/02/19 12:07:05;;;;;;;;;;;10.00;69.10;;;;;;5017025;28;87108;-45
2024/02/19 12:09:30;;;;;;;;;;;10.00;69.10;;;;;;5012125;28;87595;-45
2024/02/19 12:11:56;;;;;;;;;;;10.00;69.10;;;;;;5018116;28;86950;-45
2024/02/19 12:14:24;;;;;;;;;;;10.00;69.10;;;;;;5011473;28;88028;-45
2024/02/19 12:16:50;;;;;;;;;;;10.00;69.20;;;;;;5012366;28;88166;-45
2024/02/19 12:19:15;;;;;;;;;;;10.00;69.10;;;;;;5014677;28;87022;-45
2024/02/19 12:21:42;;;;;;;;;;;10.00;69.10;;;;;;5018099;28;88602;-45
2024/02/19 12:24:09;;;;;;;;;;;9.90;69.00;;;;;;5015809;28;87651;-45
2024/02/19 12:26:37;;;;;;;;;;;10.00;69.00;;;;;;5015098;28;87116;-45
2024/02/19 12:29:02;;;;;;;;;;;10.00;69.00;;;;;;5017569;28;88520;-45
2024/02/19 12:31:28;;;;;;;;;;;10.00;69.00;;;;;;5017127;28;86498;-45
2024/02/19 12:33:54;;;;;;;;;;;10.00;69.10;;;;;;5019243;28;86956;-45
2024/02/19 12:36:19;;;;;;;;;;;9.90;69.10;;;;;;5015247;28;88280;-45
2024/02/19 12:38:45;;;;;;;;;;;9.90;69.10;;;;;;5018163;28;88981;-45
2024/02/19 12:41:12;;;;;;;;;;;9.90;69.10;;;;;;5016532;28;88819;-45
2024/02/19 12:43:38;;;;;;;;;;;9.90;69.20;;;;;;5021134;28;88311;-45
2024/02/19 12:46:06;;;;;;;;;;;9.90;69.20;;;;;;5015310;28;87736;-45
2024/02/19 12:48:35;;;;;;;;;;;9.90;69.20;;;;;;5017033;28;87765;-45
2024/02/19 12:51:01;;;;;;;;;;;9.80;69.10;;;;;;5024292;28;87782;-45
2024/02/19 12:53:28;;;;;;;;;;;9.90;69.20;;;;;;5015136;28;86954;-45
2024/02/19 12:55:54;;;;;;;;;;;9.80;69.20;;;;;;5014506;28;87105;-45
2024/02/19 12:58:19;;;;;;;;;;;9.80;69.10;;;;;;5017090;28;87445;-45
2024/02/19 13:00:45;;;;;;;;;;;9.80;69.10;;;;;;5013090;28;86994;-45
2024/02/19 13:03:11;;;;;;;;;;;9.80;69.20;;;;;;5015005;28;88601;-45
2024/02/19 13:05:36;;;;;;;;;;;9.80;69.20;;;;;;5018330;28;87820;-45
2024/02/19 13:08:02;;;;;;;;;;;9.70;69.10;;;;;;5017193;28;87747;-45
2024/02/19 13:10:31;;;;;;;;;;;9.80;69.20;;;;;;5011341;28;88649;-45
2024/02/19 13:12:57;;;;;;;;;;;9.80;69.20;;;;;;5017210;28;87129;-45
2024/02/19 13:15:23;;;;;;;;;;;9.80;69.20;;;;;;5014268;28;87492;-45
2024/02/19 13:17:49;;;;;;;;;;;9.70;69.20;;;;;;5016049;28;86981;-45
2024/02/19 13:20:14;;;;;;;;;;;9.70;69.20;;;;;;5015504;28;87197;-44
2024/02/19 13:22:40;;;;;;;;;;;9.70;69.20;;;;;;5013363;28;87435;-45
2024/02/19 13:25:08;;;;;;;;;;;9.70;69.20;;;;;;5010340;28;86998;-45
2024/02/19 13:27:33;;;;;;;;;;;9.70;69.30;;;;;;5013241;28;88263;-46
2024/02/19 13:29:59;;;;;;;;;;;9.70;69.30;;;;;;5018052;28;87535;-45
2024/02/19 13:32:25;;;;;;;;;;;9.60;69.20;;;;;;5009344;28;87164;-45
2024/02/19 13:34:52;;;;;;;;;;;9.60;69.20;;;;;;5014735;28;88139;-45
2024/02/19 13:37:18;;;;;;;;;;;9.60;69.30;;;;;;5016744;28;87039;-45
2024/02/19 13:39:44;;;;;;;;;;;9.60;69.90;;;;;;5013554;28;87937;-45
2024/02/19 13:42:10;;;;;;;;;;;9.60;69.30;;;;;;5013326;28;88409;-45
2024/02/19 13:44:35;;;;;;;;;;;9.60;69.30;;;;;;5016542;28;86269;-45
2024/02/19 13:47:01;;;;;;;;;;;9.60;69.30;;;;;;5014617;28;87115;-45
2024/02/19 13:49:27;;;;;;;;;;;9.60;69.30;;;;;;5014410;28;87648;-45
2024/02/19 13:51:53;;;;;;;;;;;9.60;69.30;;;;;;5015674;28;87923;-45
2024/02/19 13:54:18;;;;;;;;;;;9.60;69.30;;;;;;5013728;28;87514;-45
2024/02/19 13:56:44;;;;;;;;;;;9.50;69.20;;;;;;5013690;28;87219;-45
2024/02/19 13:59:10;;;;;;;;;;;9.60;69.30;;;;;;5016328;28;87011;-45
2024/02/19 14:01:36;;;;;;;;;;;9.50;69.20;;;;;;5015148;28;88394;-60
2024/02/19 14:04:03;;;;;;;;;;;9.50;69.30;;;;;;5013536;28;87002;-38
2024/02/19 14:06:29;;;;;;;;;;;9.50;69.30;;;;;;5017673;28;89871;-38
2024/02/19 14:08:55;;;;;;;;;;;9.50;69.30;;;;;;5015038;28;86842;-38
2024/02/19 14:11:21;;;;;;;;;;;9.50;69.30;;;;;;5021729;28;87009;-38